Time;durP1;ratioP1;P1;durP2;ratioP2;P2;SDS_P1;SDS_P2;PMS_P1;PMS_P2;Temp;Humidity;BMP_temperature;BMP_pressure;BME280_temperature;BME280_humidity;BME280_pressure;Samples;Min_cycle;Max_cycle;Signal;HPM_P1;HPM_P2
2022/06/10 00:01:42;;;;;;;5.63;2.78;;;15.00;64.80;;;;;;9181254;19;20021;-69
2022/06/10 00:04:48;;;;;;;7.50;2.75;;;15.00;64.90;;;;;;9177423;19;20026;-68
2022/06/10 00:07:53;;;;;;;8.23;2.30;;;14.90;64.90;;;;;;9180792;19;20369;-68
2022/06/10 00:11:02;;;;;;;14.73;2.60;;;14.90;65.00;;;;;;9181799;19;20015;-68
2022/06/10 00:14:08;;;;;;;9.35;2.60;;;14.90;65.20;;;;;;9180099;19;20030;-67
2022/06/10 00:17:13;;;;;;;20.90;2.90;;;14.80;65.20;;;;;;9179703;19;20342;-68
2022/06/10 00:20:21;;;;;;;4.03;2.08;;;14.80;65.20;;;;;;9182194;19;20015;-68
2022/06/10 00:23:26;;;;;;;8.60;2.55;;;14.80;65.40;;;;;;9179763;19;20019;-68
2022/06/10 00:26:34;;;;;;;7.05;2.20;;;14.70;65.40;;;;;;9177967;19;20011;-68
2022/06/10 00:29:39;;;;;;;6.35;2.38;;;14.70;65.60;;;;;;9180760;19;20077;-68
2022/06/10 00:32:45;;;;;;;8.35;2.67;;;14.60;65.50;;;;;;9181861;19;20041;-68
2022/06/10 00:35:51;;;;;;;8.70;2.47;;;14.60;65.60;;;;;;9179721;19;20014;-68
2022/06/10 00:38:56;;;;;;;6.15;2.20;;;14.60;65.70;;;;;;9178822;19;20081;-68
2022/06/10 00:42:04;;;;;;;8.93;2.67;;;14.60;65.90;;;;;;9175477;19;20014;-68
2022/06/10 00:45:45;;;;;;;10.93;3.10;;;14.50;66.00;;;;;;9179577;19;20033;-68
2022/06/10 00:48:52;;;;;;;15.45;4.10;;;14.50;66.30;;;;;;9180278;19;20406;-68
2022/06/10 00:52:00;;;;;;;12.90;3.45;;;14.40;66.10;;;;;;9180526;19;20022;-67
2022/06/10 00:55:08;;;;;;;9.90;3.97;;;14.50;66.30;;;;;;9181169;19;20014;-68
2022/06/10 00:58:22;;;;;;;10.07;3.03;;;14.40;66.40;;;;;;9177639;19;20020;-68
2022/06/10 01:01:29;;;;;;;16.88;3.40;;;14.40;66.70;;;;;;9178507;19;20014;-68
2022/06/10 01:04:34;;;;;;;11.10;2.80;;;14.40;66.60;;;;;;9178231;19;20034;-67
2022/06/10 01:07:42;;;;;;;10.65;3.25;;;14.40;66.60;;;;;;9178664;19;20374;-68
2022/06/10 01:11:04;;;;;;;12.52;3.08;;;14.40;66.80;;;;;;9180314;19;20025;-68
2022/06/10 01:14:24;;;;;;;8.18;2.85;;;14.40;67.00;;;;;;9178697;19;20030;-68
2022/06/10 01:17:50;;;;;;;9.57;3.92;;;14.40;67.10;;;;;;9178199;19;20018;-67
2022/06/10 01:21:07;;;;;;;8.30;2.70;;;14.40;67.10;;;;;;9178930;19;20026;-69
2022/06/10 01:24:44;;;;;;;9.80;2.72;;;14.40;67.10;;;;;;9179581;19;20019;-66
2022/06/10 01:28:00;;;;;;;12.73;2.85;;;14.40;67.20;;;;;;9180016;19;20018;-67
2022/06/10 01:31:19;;;;;;;6.85;2.53;;;14.40;67.10;;;;;;9186695;19;20022;-68
2022/06/10 01:34:31;;;;;;;9.20;3.10;;;14.40;67.30;;;;;;9187444;19;20014;-67
2022/06/10 01:37:42;;;;;;;9.23;2.80;;;14.40;67.20;;;;;;9188835;19;20022;-69
2022/06/10 01:40:54;;;;;;;7.07;2.88;;;14.30;67.30;;;;;;9183450;19;20022;-68
2022/06/10 01:44:09;;;;;;;9.13;2.65;;;14.40;67.40;;;;;;9186255;19;20011;-68
2022/06/10 01:47:23;;;;;;;10.30;2.97;;;14.30;67.30;;;;;;9185506;19;20017;-68
2022/06/10 01:50:33;;;;;;;9.65;3.10;;;14.30;67.50;;;;;;9185753;19;20015;-68
2022/06/10 01:53:43;;;;;;;7.82;3.28;;;14.30;67.50;;;;;;9186159;19;20610;-68
2022/06/10 01:56:52;;;;;;;8.30;2.60;;;14.30;67.50;;;;;;9183035;19;20021;-67
2022/06/10 02:00:01;;;;;;;12.57;3.78;;;14.20;67.50;;;;;;9187004;19;20370;-67
2022/06/10 02:03:17;;;;;;;7.07;2.67;;;14.20;67.60;;;;;;9188058;19;20003;-67
2022/06/10 02:06:26;;;;;;;8.98;2.67;;;14.20;67.80;;;;;;9184515;19;20011;-69
2022/06/10 02:09:37;;;;;;;8.68;3.03;;;14.10;67.70;;;;;;9185579;19;20360;-68
2022/06/10 02:12:44;;;;;;;8.18;2.88;;;14.10;67.80;;;;;;9185406;19;20017;-67
2022/06/10 02:15:53;;;;;;;9.25;2.85;;;14.10;67.90;;;;;;9185375;19;20023;-68
2022/06/10 02:19:06;;;;;;;9.77;3.40;;;14.10;68.00;;;;;;9187216;19;20043;-68
2022/06/10 02:22:16;;;;;;;13.25;3.30;;;14.00;68.00;;;;;;9184317;19;20041;-68
2022/06/10 02:25:26;;;;;;;6.22;3.20;;;14.00;68.10;;;;;;9184945;19;20023;-68
2022/06/10 02:28:37;;;;;;;10.80;3.08;;;14.00;68.10;;;;;;9182634;19;20451;-68
2022/06/10 02:31:45;;;;;;;9.02;3.28;;;14.00;68.20;;;;;;9184894;19;20956;-68
2022/06/10 02:34:54;;;;;;;5.55;2.83;;;14.00;68.20;;;;;;9185843;19;20014;-68
2022/06/10 02:38:06;;;;;;;15.27;3.97;;;13.90;68.30;;;;;;9182777;19;20014;-67
2022/06/10 02:41:19;;;;;;;12.43;3.55;;;13.90;68.30;;;;;;9181423;19;20019;-68
2022/06/10 02:44:31;;;;;;;7.65;3.20;;;13.90;68.40;;;;;;9183918;19;20015;-68
2022/06/10 02:47:51;;;;;;;7.30;2.97;;;13.80;68.40;;;;;;9180118;19;20019;-68
2022/06/10 02:51:00;;;;;;;10.23;3.20;;;13.90;68.70;;;;;;9178455;19;20104;-68
2022/06/10 02:54:09;;;;;;;10.00;3.22;;;13.80;68.50;;;;;;9179465;19;20716;-67
2022/06/10 02:57:16;;;;;;;10.40;3.70;;;13.80;68.60;;;;;;9181025;19;20057;-67
2022/06/10 03:03:48;;;;;;;20.17;3.83;;;13.80;68.70;;;;;;9177902;19;20049;-68
2022/06/10 03:07:28;;;;;;;10.98;4.03;;;13.70;68.70;;;;;;9178398;19;20018;-69
2022/06/10 03:10:42;;;;;;;10.65;3.65;;;13.70;69.00;;;;;;9178361;19;20022;-67
2022/06/10 03:13:59;;;;;;;7.85;3.55;;;13.70;68.80;;;;;;9178936;19;20020;-66
2022/06/10 03:17:12;;;;;;;11.93;3.88;;;13.70;68.90;;;;;;9180881;19;20419;-69
2022/06/10 03:20:24;;;;;;;9.45;3.58;;;13.60;69.00;;;;;;9178232;19;20022;-68
2022/06/10 03:23:40;;;;;;;11.00;3.65;;;13.60;69.00;;;;;;9177216;19;20021;-67
2022/06/10 03:26:53;;;;;;;18.30;4.22;;;13.60;69.20;;;;;;9177896;19;20014;-68
2022/06/10 03:30:05;;;;;;;12.60;3.80;;;13.60;69.20;;;;;;9177662;19;20025;-67
2022/06/10 03:33:15;;;;;;;7.90;3.60;;;13.50;69.10;;;;;;9177828;19;20511;-67
2022/06/10 03:36:25;;;;;;;11.90;4.00;;;13.50;69.20;;;;;;9176787;19;20014;-66
2022/06/10 03:39:33;;;;;;;10.77;4.28;;;13.50;69.30;;;;;;9172492;19;20026;-67
2022/06/10 03:42:38;;;;;;;8.27;4.00;;;13.50;69.40;;;;;;9176412;19;20011;-66
2022/06/10 03:45:46;;;;;;;9.88;4.00;;;13.50;69.40;;;;;;9177019;19;20409;-67
2022/06/10 03:48:53;;;;;;;8.82;4.10;;;13.40;69.40;;;;;;9175472;19;20018;-67
2022/06/10 03:51:58;;;;;;;9.40;3.78;;;13.40;69.40;;;;;;9179353;19;20032;-67
2022/06/10 03:55:07;;;;;;;11.85;4.45;;;13.40;69.50;;;;;;9181413;19;20341;-67
2022/06/10 03:58:13;;;;;;;19.05;4.28;;;13.40;69.70;;;;;;9182693;19;20468;-67
2022/06/10 04:01:18;;;;;;;9.30;3.75;;;13.40;69.60;;;;;;9180922;19;20389;-66
2022/06/10 04:04:23;;;;;;;12.25;4.10;;;13.40;69.70;;;;;;9176220;19;20049;-67
2022/06/10 04:07:29;;;;;;;17.45;4.53;;;13.30;69.80;;;;;;9175805;19;20015;-67
2022/06/10 04:10:36;;;;;;;10.65;3.75;;;13.30;69.80;;;;;;9177871;19;20022;-67
2022/06/10 04:13:41;;;;;;;10.85;4.03;;;13.30;70.00;;;;;;9175020;19;20014;-66
2022/06/10 04:16:46;;;;;;;6.78;3.83;;;13.30;70.00;;;;;;9175592;19;20015;-67
2022/06/10 04:19:52;;;;;;;15.35;4.07;;;13.30;70.10;;;;;;9174357;19;20022;-67
2022/06/10 04:23:00;;;;;;;12.68;4.28;;;13.30;70.20;;;;;;9173317;19;20078;-68
2022/06/10 04:26:08;;;;;;;8.93;3.33;;;13.30;70.20;;;;;;9178421;19;20018;-68
2022/06/10 04:29:16;;;;;;;12.07;3.35;;;13.30;70.30;;;;;;9172141;19;20019;-68
2022/06/10 04:32:21;;;;;;;10.00;4.07;;;13.40;70.40;;;;;;9176850;19;20031;-67
2022/06/10 04:35:27;;;;;;;7.30;2.92;;;13.40;70.40;;;;;;9176161;19;20021;-67
2022/06/10 04:38:32;;;;;;;11.35;3.78;;;13.40;70.50;;;;;;9173576;19;20401;-66
2022/06/10 04:41:40;;;;;;;9.93;3.25;;;13.40;70.60;;;;;;9169921;19;20021;-66
2022/06/10 04:44:45;;;;;;;10.65;4.20;;;13.40;70.70;;;;;;9173223;19;20024;-68
2022/06/10 04:47:54;;;;;;;10.05;4.35;;;13.50;70.70;;;;;;9173497;19;20021;-67
2022/06/10 04:51:00;;;;;;;10.10;3.60;;;13.50;70.70;;;;;;9175607;19;20018;-67
2022/06/10 04:54:05;;;;;;;12.27;4.50;;;13.60;70.90;;;;;;9173997;19;20360;-67
2022/06/10 04:57:13;;;;;;;11.55;4.00;;;13.60;70.90;;;;;;9173632;19;20472;-67
2022/06/10 05:00:22;;;;;;;12.82;4.30;;;13.70;71.00;;;;;;9173612;19;20017;-66
2022/06/10 05:03:27;;;;;;;12.32;4.00;;;13.70;71.10;;;;;;9181134;19;20019;-67
2022/06/10 05:06:32;;;;;;;16.45;4.53;;;13.80;71.20;;;;;;9183684;19;20024;-67
2022/06/10 05:09:37;;;;;;;14.05;4.20;;;13.90;71.20;;;;;;9180588;19;20556;-66
2022/06/10 05:12:45;;;;;;;11.07;3.60;;;14.00;71.20;;;;;;9185243;19;20468;-67
2022/06/10 05:15:51;;;;;;;14.38;4.32;;;14.00;71.30;;;;;;9184154;19;20011;-66
2022/06/10 05:18:57;;;;;;;11.95;4.28;;;14.10;71.30;;;;;;9182870;19;20018;-67
2022/06/10 05:22:02;;;;;;;15.45;4.68;;;14.20;71.30;;;;;;9182271;19;20368;-68
2022/06/10 05:25:08;;;;;;;17.17;3.90;;;14.30;71.30;;;;;;9181820;19;20357;-67
2022/06/10 05:28:17;;;;;;;11.10;3.70;;;14.30;71.40;;;;;;9180530;19;20023;-67
2022/06/10 05:31:22;;;;;;;12.43;3.90;;;14.40;71.50;;;;;;9184362;19;20554;-67
2022/06/10 05:37:46;;;;;;;16.60;3.97;;;14.60;71.50;;;;;;9182918;19;20029;-68
2022/06/10 05:42:04;;;;;;;11.52;4.30;;;14.60;71.40;;;;;;9177097;19;20423;-68
2022/06/10 05:44:26;;;;;;;15.60;3.42;;;14.70;71.40;;;;;;9180783;19;20035;-67
2022/06/10 05:47:33;;;;;;;12.85;4.13;;;14.80;71.50;;;;;;9184921;19;20033;-68
2022/06/10 05:50:42;;;;;;;9.75;4.03;;;14.80;71.50;;;;;;9180395;19;20026;-68
2022/06/10 05:53:47;;;;;;;11.85;3.78;;;14.90;71.50;;;;;;9180554;19;20073;-67
2022/06/10 05:56:52;;;;;;;10.65;4.45;;;14.90;71.50;;;;;;9179920;19;20022;-66
2022/06/10 06:00:00;;;;;;;9.30;3.97;;;15.00;71.50;;;;;;9182080;19;20017;-68
2022/06/10 06:03:08;;;;;;;15.30;4.63;;;15.10;71.60;;;;;;9181839;19;20018;-68
2022/06/10 06:06:13;;;;;;;19.95;4.20;;;15.10;71.50;;;;;;9180277;19;20019;-67
2022/06/10 06:09:19;;;;;;;10.20;3.70;;;15.20;71.60;;;;;;9178611;19;20023;-67
2022/06/10 06:12:26;;;;;;;15.05;4.25;;;15.20;71.50;;;;;;9180156;19;20018;-67
2022/06/10 06:15:34;;;;;;;17.33;3.75;;;15.30;71.70;;;;;;9177899;19;20018;-67
2022/06/10 06:18:40;;;;;;;13.23;3.60;;;15.30;71.70;;;;;;9180075;19;20031;-68
2022/06/10 06:21:45;;;;;;;11.57;4.00;;;15.40;71.80;;;;;;9179508;19;20468;-68
2022/06/10 06:24:50;;;;;;;16.13;4.53;;;15.50;71.90;;;;;;9181641;19;20479;-67
2022/06/10 06:27:55;;;;;;;12.43;3.70;;;15.50;72.00;;;;;;9178317;19;20460;-68
2022/06/10 06:31:02;;;;;;;16.67;4.35;;;15.50;72.10;;;;;;9180803;19;20349;-68
2022/06/10 06:34:08;;;;;;;15.93;4.25;;;15.60;72.40;;;;;;9177748;19;20520;-66
2022/06/10 06:37:15;;;;;;;12.70;4.40;;;15.60;72.40;;;;;;9177979;19;20018;-67
2022/06/10 06:40:21;;;;;;;10.70;4.43;;;15.70;72.60;;;;;;9176891;19;20468;-67
2022/06/10 06:43:26;;;;;;;15.80;4.28;;;15.70;72.70;;;;;;9177023;19;20015;-67
2022/06/10 06:46:35;;;;;;;15.48;5.18;;;15.70;72.80;;;;;;9182888;19;20021;-67
2022/06/10 06:49:40;;;;;;;11.80;3.95;;;15.70;73.00;;;;;;9182563;19;20379;-67
2022/06/10 06:52:45;;;;;;;11.43;3.97;;;15.80;73.00;;;;;;9186558;19;20019;-68
2022/06/10 06:55:50;;;;;;;14.05;4.25;;;15.80;73.20;;;;;;9185986;19;20024;-67
2022/06/10 06:58:55;;;;;;;15.40;4.53;;;15.80;73.30;;;;;;9184619;19;20025;-66
2022/06/10 07:02:03;;;;;;;16.73;4.47;;;15.90;73.50;;;;;;9185478;19;20357;-66
2022/06/10 07:05:10;;;;;;;13.15;5.28;;;15.90;73.70;;;;;;9185644;19;20353;-68
2022/06/10 07:08:17;;;;;;;16.30;4.53;;;15.90;73.70;;;;;;9182307;19;20082;-67
2022/06/10 07:11:22;;;;;;;15.63;5.30;;;15.90;73.70;;;;;;9185587;19;20014;-66
2022/06/10 07:14:27;;;;;;;21.02;6.32;;;16.00;73.90;;;;;;9186057;19;20018;-67
2022/06/10 07:17:35;;;;;;;14.05;5.55;;;16.10;74.10;;;;;;9183382;19;20014;-67
2022/06/10 07:20:41;;;;;;;15.68;5.10;;;16.10;74.30;;;;;;9182934;19;20033;-67
2022/06/10 07:23:46;;;;;;;17.17;5.10;;;16.20;74.30;;;;;;9185710;19;20014;-67
2022/06/10 07:26:51;;;;;;;17.48;4.88;;;16.20;74.30;;;;;;9181894;19;20002;-68
2022/06/10 07:29:56;;;;;;;12.95;4.20;;;16.30;74.40;;;;;;9183669;19;20017;-66
2022/06/10 07:33:04;;;;;;;15.98;5.43;;;16.40;74.60;;;;;;9183495;19;20025;-67
2022/06/10 07:36:11;;;;;;;12.10;4.55;;;16.50;74.80;;;;;;9184852;19;20019;-67
2022/06/10 07:39:16;;;;;;;21.75;4.72;;;16.50;74.70;;;;;;9184309;19;20018;-67
2022/06/10 07:42:21;;;;;;;10.63;4.18;;;16.60;74.70;;;;;;9179956;19;20023;-66
2022/06/10 07:45:28;;;;;;;15.45;3.67;;;16.70;74.70;;;;;;9183968;19;20025;-66
2022/06/10 07:48:36;;;;;;;15.02;4.35;;;16.80;74.80;;;;;;9184253;19;20472;-67
2022/06/10 07:51:41;;;;;;;10.77;3.83;;;16.80;74.90;;;;;;9182442;19;20014;-68
2022/06/10 07:54:46;;;;;;;9.35;3.75;;;16.90;74.90;;;;;;9182144;19;20011;-68
2022/06/10 07:57:51;;;;;;;10.50;3.67;;;17.00;74.80;;;;;;9184311;19;20082;-67
2022/06/10 08:00:57;;;;;;;14.85;4.32;;;17.10;74.80;;;;;;9183307;19;20030;-68
2022/06/10 08:04:06;;;;;;;15.05;3.55;;;17.20;74.80;;;;;;9182896;19;20090;-67
2022/06/10 08:07:12;;;;;;;17.42;3.83;;;17.20;74.80;;;;;;9180727;19;20034;-66
2022/06/10 08:10:24;;;;;;;13.98;3.25;;;17.30;74.80;;;;;;9181990;19;20007;-68
2022/06/10 08:13:29;;;;;;;16.30;4.30;;;17.40;75.00;;;;;;9181971;19;20006;-67
2022/06/10 08:16:35;;;;;;;11.98;3.67;;;17.50;74.90;;;;;;9181221;19;20057;-68
2022/06/10 08:19:43;;;;;;;10.52;3.60;;;17.60;74.90;;;;;;9181843;19;20018;-67
2022/06/10 08:22:46;;;;;;;11.57;4.03;;;17.70;75.00;;;;;;9181568;19;20021;-68
2022/06/10 08:25:52;;;;;;;15.60;4.87;;;17.80;74.90;;;;;;9179882;19;20028;-67
2022/06/10 08:28:59;;;;;;;11.40;3.40;;;17.90;74.80;;;;;;9178737;19;20038;-67
2022/06/10 08:32:04;;;;;;;14.95;3.97;;;18.00;74.70;;;;;;9181151;19;20022;-67
2022/06/10 08:35:12;;;;;;;17.00;4.05;;;18.10;74.70;;;;;;9179803;19;20003;-68
2022/06/10 08:38:20;;;;;;;9.48;2.80;;;18.20;74.80;;;;;;9186586;19;20505;-67
2022/06/10 08:41:33;;;;;;;9.73;2.97;;;18.30;74.70;;;;;;9181961;19;20018;-69
2022/06/10 08:44:44;;;;;;;11.65;3.50;;;18.40;74.60;;;;;;9186628;19;20025;-68
2022/06/10 08:48:02;;;;;;;12.27;2.90;;;18.40;74.40;;;;;;9188948;19;20452;-67
2022/06/10 08:51:19;;;;;;;17.70;3.25;;;18.60;74.50;;;;;;9186587;19;20420;-68
2022/06/10 08:54:33;;;;;;;13.95;3.35;;;18.70;74.60;;;;;;9191201;19;20014;-68
2022/06/10 08:57:43;;;;;;;10.90;3.40;;;18.80;74.40;;;;;;9188976;19;20010;-68
2022/06/10 09:00:49;;;;;;;10.27;3.10;;;18.90;74.30;;;;;;9187492;19;20026;-67
2022/06/10 09:04:02;;;;;;;16.38;3.55;;;19.10;74.20;;;;;;9187185;19;20014;-68
2022/06/10 09:07:17;;;;;;;12.02;3.05;;;19.30;74.10;;;;;;9186694;19;20024;-69
2022/06/10 09:10:27;;;;;;;13.48;4.40;;;19.40;74.00;;;;;;9186083;19;20010;-67
2022/06/10 09:13:39;;;;;;;10.25;3.33;;;19.60;73.90;;;;;;9187331;19;20018;-68
2022/06/10 09:16:54;;;;;;;11.15;4.05;;;19.70;73.70;;;;;;9186307;19;20026;-67
2022/06/10 09:20:08;;;;;;;11.27;3.28;;;19.90;73.50;;;;;;9182949;19;20023;-67
2022/06/10 09:23:22;;;;;;;8.55;2.92;;;20.00;73.30;;;;;;9182971;19;20038;-68
2022/06/10 09:26:33;;;;;;;13.70;3.72;;;20.10;73.00;;;;;;9182083;19;20360;-68
2022/06/10 09:29:40;;;;;;;10.20;3.10;;;20.20;72.90;;;;;;9182502;19;20480;-68
2022/06/10 09:32:55;;;;;;;8.50;3.70;;;20.30;72.90;;;;;;9188625;19;20361;-66
2022/06/10 09:36:10;;;;;;;9.13;2.72;;;20.30;72.70;;;;;;9189078;19;20030;-68
2022/06/10 09:43:07;;;;;;;14.15;3.80;;;20.50;72.50;;;;;;9186827;19;20010;-66
2022/06/10 09:46:26;;;;;;;11.52;3.40;;;20.50;72.30;;;;;;9185610;19;20532;-66
2022/06/10 09:49:49;;;;;;;7.57;3.08;;;20.60;72.20;;;;;;9186607;19;20093;-67
2022/06/10 09:53:06;;;;;;;9.85;3.55;;;20.60;72.10;;;;;;9187048;19;20018;-67
2022/06/10 09:56:43;;;;;;;16.73;2.92;;;20.60;72.00;;;;;;9184288;19;20476;-66
2022/06/10 09:59:57;;;;;;;17.42;3.00;;;20.70;72.00;;;;;;9187427;19;20370;-67
2022/06/10 10:03:18;;;;;;;14.85;3.10;;;20.70;72.00;;;;;;9188845;19;20387;-67
2022/06/10 10:06:34;;;;;;;12.77;3.22;;;20.80;71.90;;;;;;9188182;19;20046;-67
2022/06/10 10:09:48;;;;;;;10.23;2.42;;;20.80;71.90;;;;;;9185778;19;20038;-66
2022/06/10 10:13:21;;;;;;;13.82;2.10;;;20.90;71.70;;;;;;9186772;19;20095;-67
2022/06/10 10:16:45;;;;;;;8.38;2.08;;;21.10;71.70;;;;;;9187729;19;20022;-67
2022/06/10 10:20:03;;;;;;;11.10;2.07;;;21.20;71.40;;;;;;9185685;19;20034;-67
2022/06/10 10:23:14;;;;;;;9.30;2.20;;;21.30;71.20;;;;;;9182035;19;20020;-69
2022/06/10 10:26:26;;;;;;;13.10;4.15;;;21.50;71.00;;;;;;9184831;19;20010;-70
2022/06/10 10:29:40;;;;;;;7.35;1.95;;;21.60;70.70;;;;;;9186204;19;20079;-68
2022/06/10 10:32:53;;;;;;;11.63;1.98;;;21.80;70.40;;;;;;9185245;19;20030;-68
2022/06/10 10:36:00;;;;;;;10.20;2.40;;;21.90;70.90;;;;;;9184827;19;20090;-67
2022/06/10 10:39:28;;;;;;;9.70;2.42;;;22.10;70.30;;;;;;9184387;19;20006;-68
2022/06/10 10:42:38;;;;;;;10.45;2.72;;;22.30;70.10;;;;;;9183763;19;20014;-67
2022/06/10 10:45:57;;;;;;;7.95;2.15;;;22.40;70.00;;;;;;9184773;19;20014;-67
2022/06/10 10:49:06;;;;;;;10.43;2.28;;;22.60;69.60;;;;;;9186150;19;20021;-67
2022/06/10 10:52:27;;;;;;;10.88;2.08;;;22.80;69.40;;;;;;9182375;19;20015;-67
2022/06/10 10:55:37;;;;;;;11.20;2.00;;;22.90;69.00;;;;;;9185652;19;20011;-68
2022/06/10 10:58:51;;;;;;;11.40;2.08;;;23.10;68.80;;;;;;9185942;19;20022;-67
2022/06/10 11:01:58;;;;;;;;;;;23.10;68.50;;;;;;9185308;19;20018;-67
2022/06/10 11:05:22;;;;;;;10.38;2.25;;;23.20;68.70;;;;;;9184085;19;19918;-68
2022/06/10 11:08:31;;;;;;;8.68;1.58;;;23.30;68.20;;;;;;9181969;19;20018;-70
2022/06/10 11:11:39;;;;;;;6.85;1.70;;;23.40;68.30;;;;;;9183696;19;20015;-69
2022/06/10 11:14:50;;;;;;;8.98;2.00;;;23.40;68.00;;;;;;9184835;19;20029;-69
2022/06/10 11:18:00;;;;;;;14.52;1.98;;;23.50;67.80;;;;;;9181669;19;20519;-69
2022/06/10 11:21:05;;;;;;;7.60;2.03;;;23.60;67.70;;;;;;9183435;19;20006;-70
2022/06/10 11:24:18;;;;;;;12.45;2.30;;;23.70;67.70;;;;;;9184895;19;20025;-69
2022/06/10 11:27:35;;;;;;;6.10;1.90;;;23.90;67.30;;;;;;9182877;19;20006;-68
2022/06/10 11:30:48;;;;;;;9.70;2.03;;;24.00;67.20;;;;;;9182626;19;20484;-67
2022/06/10 11:34:00;;;;;;;11.02;1.95;;;24.10;67.10;;;;;;9184143;19;20082;-68
2022/06/10 11:37:23;;;;;;;8.27;2.13;;;24.20;66.80;;;;;;9184814;19;20010;-68
2022/06/10 11:40:31;;;;;;;7.38;1.80;;;24.40;66.70;;;;;;9178569;19;20074;-67
2022/06/10 11:43:38;;;;;;;6.72;1.63;;;24.50;66.60;;;;;;9181586;19;20022;-68
2022/06/10 11:46:49;;;;;;;5.72;1.92;;;24.60;66.40;;;;;;9184155;19;20382;-68
2022/06/10 11:50:01;;;;;;;5.78;1.70;;;24.70;66.10;;;;;;9183363;19;20014;-68
2022/06/10 11:53:15;;;;;;;11.95;2.33;;;24.80;65.70;;;;;;9179887;19;20014;-68
2022/06/10 11:59:54;;;;;;;6.75;1.73;;;24.90;65.40;;;;;;9182095;19;20094;-68
2022/06/10 12:03:09;;;;;;;5.70;1.85;;;24.90;65.20;;;;;;9181738;19;20360;-68
2022/06/10 12:06:23;;;;;;;10.52;1.67;;;25.00;65.20;;;;;;9182227;19;20014;-68
2022/06/10 12:09:33;;;;;;;7.95;2.42;;;25.00;65.00;;;;;;9183290;19;20586;-67
2022/06/10 12:12:44;;;;;;;9.18;2.13;;;25.10;65.00;;;;;;9182071;19;20018;-68
2022/06/10 12:15:53;;;;;;;10.23;1.77;;;25.10;64.80;;;;;;9178932;19;20353;-69
2022/06/10 12:18:58;;;;;;;6.43;2.00;;;25.20;64.70;;;;;;9180610;19;20014;-68
2022/06/10 12:22:06;;;;;;;7.90;1.95;;;25.30;64.50;;;;;;9183016;19;20022;-68
2022/06/10 12:25:18;;;;;;;13.93;1.80;;;25.40;64.30;;;;;;9180304;19;20342;-69
2022/06/10 12:28:34;;;;;;;12.50;2.08;;;25.40;63.80;;;;;;9180875;19;20015;-69
2022/06/10 12:32:00;;;;;;;7.80;2.03;;;25.40;63.50;;;;;;9179956;19;20353;-68
2022/06/10 12:35:13;;;;;;;7.80;1.98;;;25.40;63.20;;;;;;9180507;19;20015;-68
2022/06/10 12:38:24;;;;;;;7.80;1.80;;;25.40;63.40;;;;;;9180540;19;20531;-69
2022/06/10 12:41:37;;;;;;;10.68;2.22;;;25.30;63.10;;;;;;9176302;19;20495;-69
2022/06/10 12:44:49;;;;;;;7.18;1.77;;;25.20;63.00;;;;;;9181233;19;20086;-69
2022/06/10 12:47:59;;;;;;;11.57;1.88;;;25.20;63.10;;;;;;9180258;19;20375;-68
2022/06/10 12:51:20;;;;;;;10.15;1.88;;;25.10;63.10;;;;;;9179849;19;20014;-68
2022/06/10 12:54:37;;;;;;;8.00;2.00;;;25.00;63.50;;;;;;9179613;19;20018;-69
2022/06/10 12:57:44;;;;;;;9.10;2.20;;;24.90;63.10;;;;;;9179368;19;20021;-68
2022/06/10 13:00:51;;;;;;;7.70;1.85;;;24.80;63.10;;;;;;9180090;19;20015;-69
2022/06/10 13:03:57;;;;;;;11.88;1.90;;;24.70;63.20;;;;;;9180630;19;20415;-68
2022/06/10 13:07:03;;;;;;;9.48;2.40;;;24.70;63.30;;;;;;9180254;19;20018;-68
2022/06/10 13:10:42;;;;;;;10.90;2.25;;;24.60;63.30;;;;;;9179808;19;20018;-68
2022/06/10 13:13:49;;;;;;;14.02;2.15;;;24.60;63.30;;;;;;9176120;19;20041;-68
2022/06/10 13:17:15;;;;;;;9.45;2.55;;;24.50;63.50;;;;;;9181059;19;20007;-68
2022/06/10 13:20:27;;;;;;;11.20;2.47;;;24.50;63.50;;;;;;9178882;19;20028;-68
2022/06/10 13:23:32;;;;;;;7.50;2.25;;;24.50;63.60;;;;;;9182872;19;20022;-68
2022/06/10 13:26:37;;;;;;;16.85;2.55;;;24.50;63.50;;;;;;9187313;19;20014;-69
2022/06/10 13:29:51;;;;;;;14.55;2.28;;;24.50;63.60;;;;;;9187524;19;20013;-68
2022/06/10 13:32:59;;;;;;;8.98;2.08;;;24.50;63.50;;;;;;9185933;19;20352;-67
2022/06/10 13:36:04;;;;;;;16.40;2.88;;;24.50;63.40;;;;;;9187889;19;20014;-67
2022/06/10 13:39:10;;;;;;;8.98;2.13;;;24.60;63.50;;;;;;9189466;19;20015;-68
2022/06/10 13:42:21;;;;;;;13.38;2.60;;;24.60;63.40;;;;;;9180005;19;20014;-67
2022/06/10 13:45:34;;;;;;;12.98;2.20;;;24.60;63.30;;;;;;9184156;19;20021;-67
2022/06/10 13:48:39;;;;;;;19.95;3.50;;;24.60;63.10;;;;;;9183147;19;20015;-67
2022/06/10 13:51:49;;;;;;;13.30;2.67;;;24.60;63.20;;;;;;9185007;19;20488;-69
2022/06/10 13:54:55;;;;;;;11.85;3.22;;;24.60;63.00;;;;;;9183596;19;20006;-67
2022/06/10 13:58:04;;;;;;;12.25;2.20;;;24.70;63.00;;;;;;9185546;19;20029;-69
2022/06/10 14:01:19;;;;;;;9.73;2.03;;;24.70;63.10;;;;;;9183958;19;20017;-68
2022/06/10 14:04:28;;;;;;;9.27;1.80;;;24.70;63.50;;;;;;9185853;19;21034;-67
2022/06/10 14:07:39;;;;;;;7.82;1.83;;;24.70;62.80;;;;;;9181303;19;20014;-67
2022/06/10 14:10:48;;;;;;;12.85;1.80;;;24.70;62.70;;;;;;9186421;19;20053;-67
2022/06/10 14:13:56;;;;;;;8.93;2.55;;;24.70;62.70;;;;;;9182022;19;20044;-68
2022/06/10 14:17:09;;;;;;;9.52;2.72;;;24.70;62.70;;;;;;9185188;19;20022;-67
2022/06/10 14:20:19;;;;;;;11.15;2.35;;;24.70;62.70;;;;;;9183402;19;20483;-68
2022/06/10 14:23:27;;;;;;;8.25;2.10;;;24.70;62.80;;;;;;9183206;19;20010;-69
2022/06/10 14:26:32;;;;;;;7.20;2.13;;;24.70;62.90;;;;;;9184280;19;20010;-69
2022/06/10 14:29:44;;;;;;;12.32;1.98;;;24.80;63.00;;;;;;9183773;19;20015;-69
2022/06/10 14:32:59;;;;;;;5.40;1.63;;;24.80;62.80;;;;;;9176678;19;20006;-69
2022/06/10 14:36:17;;;;;;;11.07;2.38;;;24.80;62.60;;;;;;9175622;19;20021;-69
2022/06/10 14:39:26;;;;;;;9.07;2.20;;;24.80;62.40;;;;;;9179446;19;20479;-69
2022/06/10 14:42:34;;;;;;;10.40;2.20;;;24.90;62.40;;;;;;9178763;19;20022;-69
2022/06/10 14:45:42;;;;;;;11.80;2.15;;;24.90;62.20;;;;;;9179342;19;20015;-68
2022/06/10 14:48:50;;;;;;;8.02;2.00;;;24.90;62.20;;;;;;9176391;19;20014;-69
2022/06/10 14:51:55;;;;;;;14.02;2.60;;;24.90;62.10;;;;;;9179677;19;20018;-70
2022/06/10 14:55:02;;;;;;;11.07;2.38;;;24.90;62.10;;;;;;9177963;19;20023;-70
2022/06/10 14:58:12;;;;;;;11.93;2.45;;;24.90;62.00;;;;;;9176487;19;20019;-69
2022/06/10 15:01:23;;;;;;;8.77;2.22;;;24.90;61.90;;;;;;9178760;19;20014;-69
2022/06/10 15:04:31;;;;;;;11.93;2.25;;;24.90;61.80;;;;;;9176796;19;20018;-70
2022/06/10 15:07:56;;;;;;;9.05;2.45;;;24.90;61.80;;;;;;9171365;19;20006;-68
2022/06/10 15:11:02;;;;;;;7.38;2.20;;;24.90;61.80;;;;;;9167077;19;20022;-69
2022/06/10 15:14:07;;;;;;;6.30;2.15;;;24.90;61.80;;;;;;9168033;19;21149;-70
2022/06/10 15:17:14;;;;;;;7.35;2.08;;;24.90;61.90;;;;;;9167592;19;20363;-68
2022/06/10 15:20:22;;;;;;;8.48;2.72;;;24.90;62.40;;;;;;9170388;19;20126;-68
2022/06/10 15:23:27;;;;;;;11.80;2.17;;;24.90;61.70;;;;;;9170540;19;20024;-69
2022/06/10 15:26:39;;;;;;;13.23;2.53;;;24.90;61.60;;;;;;9167245;19;20030;-67
2022/06/10 15:29:44;;;;;;;11.55;3.38;;;24.80;61.30;;;;;;9164706;19;20373;-68
2022/06/10 15:32:49;;;;;;;6.88;2.20;;;24.80;61.40;;;;;;9166976;19;20476;-70
2022/06/10 15:42:38;;;;;;;10.80;2.58;;;24.60;61.40;;;;;;9167618;19;20033;-68
2022/06/10 15:45:44;;;;;;;13.93;2.97;;;24.50;61.40;;;;;;9169977;19;20022;-68
2022/06/10 15:48:50;;;;;;;7.57;2.33;;;24.40;61.40;;;;;;9149427;19;20018;-67
2022/06/10 15:51:59;;;;;;;9.02;2.67;;;24.40;61.50;;;;;;9127938;19;20026;-69
2022/06/10 15:58:36;;;;;;;9.73;3.00;;;24.30;61.50;;;;;;9169914;19;20388;-67
2022/06/10 16:01:41;;;;;;;11.10;2.80;;;24.20;61.60;;;;;;9167502;19;20022;-68
2022/06/10 16:04:46;;;;;;;9.70;2.53;;;24.20;61.70;;;;;;9168078;19;20114;-68
2022/06/10 16:07:55;;;;;;;12.50;2.80;;;24.20;61.80;;;;;;9166617;19;20018;-67
2022/06/10 16:11:00;;;;;;;10.13;2.55;;;24.10;61.70;;;;;;9172153;19;20018;-68
2022/06/10 16:14:06;;;;;;;6.82;2.25;;;24.10;61.80;;;;;;9173193;19;20484;-68
2022/06/10 16:17:13;;;;;;;12.15;2.33;;;24.10;61.90;;;;;;9170037;19;21828;-69
2022/06/10 16:20:21;;;;;;;8.52;2.65;;;24.00;61.90;;;;;;9168281;19;20019;-68
2022/06/10 16:23:31;;;;;;;9.02;2.47;;;24.00;62.00;;;;;;9171602;19;20407;-68
2022/06/10 16:26:40;;;;;;;9.43;2.65;;;24.00;62.00;;;;;;9173273;19;20025;-68
2022/06/10 16:29:50;;;;;;;16.05;2.50;;;23.90;62.10;;;;;;9176019;19;20014;-68
2022/06/10 16:32:56;;;;;;;11.05;2.72;;;23.90;62.20;;;;;;9173297;19;20360;-68
2022/06/10 16:36:01;;;;;;;12.25;3.17;;;23.90;62.30;;;;;;9171634;19;20018;-67
2022/06/10 16:39:10;;;;;;;9.63;2.53;;;23.80;62.50;;;;;;9169803;19;20377;-68
2022/06/10 16:42:23;;;;;;;8.98;2.55;;;23.70;62.70;;;;;;9163980;19;20018;-69
2022/06/10 16:45:31;;;;;;;11.80;2.97;;;23.70;62.80;;;;;;9163372;19;20026;-68